Time;durP1;ratioP1;P1;durP2;ratioP2;P2;SDS_P1;SDS_P2;PMS_P1;PMS_P2;Temp;Humidity;BMP_temperature;BMP_pressure;BME280_temperature;BME280_humidity;BME280_pressure;Samples;Min_cycle;Max_cycle;Signal;HPM_P1;HPM_P2
2023/04/03 00:00:14;;;;;;;4.15;2.40;;;4.40;99.90;;;;;;5044185;28;20055;-78
2023/04/03 00:02:40;;;;;;;3.85;3.05;;;4.40;99.90;;;;;;5048833;28;20485;-77
2023/04/03 00:05:07;;;;;;;6.60;3.08;;;4.30;99.90;;;;;;5051136;28;20033;-78
2023/04/03 00:07:32;;;;;;;6.18;3.38;;;4.40;99.90;;;;;;5044568;28;20043;-78
2023/04/03 00:09:58;;;;;;;6.10;3.33;;;4.40;99.90;;;;;;5044114;28;20393;-78
2023/04/03 00:12:24;;;;;;;4.53;3.10;;;4.40;99.90;;;;;;5046167;28;20510;-78
2023/04/03 00:14:49;;;;;;;4.95;2.90;;;4.40;99.90;;;;;;5042685;28;20083;-78
2023/04/03 00:17:15;;;;;;;5.10;2.67;;;4.40;99.90;;;;;;5048420;28;20031;-78
2023/04/03 00:19:40;;;;;;;3.75;2.58;;;4.40;99.90;;;;;;5044624;28;20055;-78
2023/04/03 00:22:06;;;;;;;6.47;3.05;;;4.40;99.90;;;;;;5044344;28;20409;-78
2023/04/03 00:24:32;;;;;;;5.10;2.78;;;4.40;99.90;;;;;;5042062;28;20111;-78
2023/04/03 00:26:57;;;;;;;4.10;2.53;;;4.30;99.90;;;;;;5045542;28;20435;-78
2023/04/03 00:29:23;;;;;;;4.75;2.60;;;4.30;99.90;;;;;;5054131;28;20025;-78
2023/04/03 00:31:48;;;;;;;5.40;2.65;;;4.30;99.90;;;;;;5044674;28;20021;-78
2023/04/03 00:34:14;;;;;;;4.53;2.65;;;4.40;99.90;;;;;;5040781;28;20098;-77
2023/04/03 00:36:40;;;;;;;4.85;2.97;;;4.30;99.90;;;;;;5042626;28;20025;-78
2023/04/03 00:39:05;;;;;;;3.80;2.40;;;4.40;99.90;;;;;;5048470;28;20021;-79
2023/04/03 00:41:31;;;;;;;4.78;2.90;;;4.40;99.90;;;;;;5046883;28;20997;-80
2023/04/03 00:43:57;;;;;;;4.85;2.70;;;4.40;99.90;;;;;;5048079;28;20033;-77
2023/04/03 00:46:23;;;;;;;5.35;2.88;;;4.40;99.90;;;;;;5043851;28;20025;-78
2023/04/03 00:48:49;;;;;;;5.15;2.97;;;4.40;99.90;;;;;;5063320;28;20017;-77
2023/04/03 00:51:20;;;;;;;6.25;2.83;;;4.40;99.90;;;;;;5059254;28;20017;-78
2023/04/03 00:53:50;;;;;;;3.55;2.60;;;4.40;99.90;;;;;;5045008;28;20017;-78
2023/04/03 00:56:19;;;;;;;4.95;2.85;;;4.30;99.90;;;;;;5045039;28;20086;-78
2023/04/03 00:58:56;;;;;;;4.28;2.85;;;4.30;99.90;;;;;;5045115;28;20033;-79
2023/04/03 01:01:25;;;;;;;6.05;3.03;;;4.30;99.90;;;;;;5046350;28;20047;-78
2023/04/03 01:03:51;;;;;;;5.90;3.22;;;4.30;99.90;;;;;;5047074;28;20020;-78
2023/04/03 01:06:22;;;;;;;5.97;3.10;;;4.30;99.90;;;;;;5045980;28;20147;-78
2023/04/03 01:08:50;;;;;;;4.07;2.70;;;4.30;99.90;;;;;;5041870;28;20025;-79
2023/04/03 01:11:16;;;;;;;6.97;3.38;;;4.20;99.90;;;;;;5047503;28;20504;-78
2023/04/03 01:13:41;;;;;;;6.63;2.70;;;4.20;99.90;;;;;;5041401;28;20032;-79
2023/04/03 01:16:08;;;;;;;9.60;3.53;;;4.20;99.90;;;;;;5045454;28;20064;-78
2023/04/03 01:18:37;;;;;;;5.75;3.15;;;4.20;99.90;;;;;;5043094;28;20115;-78
2023/04/03 01:21:41;;;;;;;7.85;3.10;;;4.20;99.90;;;;;;5045824;28;20481;-78
2023/04/03 01:24:38;;;;;;;4.83;2.80;;;4.20;99.90;;;;;;5036299;28;20036;-78
2023/04/03 01:27:06;;;;;;;5.68;2.85;;;4.10;99.90;;;;;;5033632;28;20793;-78
2023/04/03 01:29:32;;;;;;;5.20;3.25;;;4.10;99.90;;;;;;5045982;28;20054;-78
2023/04/03 01:32:03;;;;;;;4.95;3.00;;;4.20;99.90;;;;;;5041735;28;20025;-79
2023/04/03 01:34:29;;;;;;;5.57;3.50;;;4.20;99.90;;;;;;5043913;28;20030;-79
2023/04/03 01:36:56;;;;;;;3.95;2.58;;;4.20;99.90;;;;;;5046681;28;20025;-79
2023/04/03 01:39:21;;;;;;;6.95;2.90;;;4.20;99.90;;;;;;5048161;28;20037;-78
2023/04/03 01:41:48;;;;;;;5.22;2.90;;;4.20;99.90;;;;;;5045853;28;20052;-78
2023/04/03 01:44:13;;;;;;;4.45;3.03;;;4.10;99.90;;;;;;5043202;28;20025;-78
2023/04/03 01:46:39;;;;;;;5.00;3.00;;;4.10;99.90;;;;;;5020526;28;20033;-78
2023/04/03 01:49:05;;;;;;;7.55;3.42;;;4.20;99.90;;;;;;5045795;28;20203;-78
2023/04/03 01:51:31;;;;;;;5.57;3.20;;;4.10;99.90;;;;;;5043494;28;20580;-78
2023/04/03 01:53:56;;;;;;;4.78;2.85;;;4.10;99.90;;;;;;5047273;28;20124;-77
2023/04/03 01:56:22;;;;;;;5.28;3.47;;;4.10;99.90;;;;;;5046745;28;20028;-77
2023/04/03 01:58:47;;;;;;;4.30;2.65;;;4.00;99.90;;;;;;5051311;28;20421;-78
2023/04/03 02:01:13;;;;;;;6.38;2.70;;;3.90;99.90;;;;;;5046092;28;20049;-78
2023/04/03 02:03:39;;;;;;;4.35;3.13;;;3.90;99.90;;;;;;5043395;28;20029;-78
2023/04/03 02:06:05;;;;;;;4.78;2.80;;;3.90;99.90;;;;;;5045154;28;20109;-78
2023/04/03 02:08:31;;;;;;;5.53;2.95;;;3.90;99.90;;;;;;5045911;28;20024;-77
2023/04/03 02:10:56;;;;;;;4.80;3.08;;;3.80;99.90;;;;;;5048152;28;20029;-77
2023/04/03 02:13:22;;;;;;;5.00;3.35;;;3.80;99.90;;;;;;5041861;28;20012;-78
2023/04/03 02:15:47;;;;;;;7.55;4.00;;;3.80;99.90;;;;;;5048415;28;20200;-78
2023/04/03 02:18:14;;;;;;;4.75;2.95;;;3.80;99.90;;;;;;5046986;28;20021;-77
2023/04/03 02:20:40;;;;;;;4.43;2.78;;;3.80;99.90;;;;;;5047641;28;20558;-77
2023/04/03 02:23:06;;;;;;;5.13;3.30;;;3.80;99.90;;;;;;5044325;28;20033;-79
2023/04/03 02:25:32;;;;;;;4.63;3.38;;;3.80;99.90;;;;;;5046490;28;20029;-79
2023/04/03 02:27:58;;;;;;;6.55;3.40;;;3.90;99.90;;;;;;5044298;28;20206;-79
2023/04/03 02:30:23;;;;;;;5.68;3.15;;;3.80;99.90;;;;;;5043333;28;20096;-77
2023/04/03 02:32:49;;;;;;;9.10;3.78;;;3.80;99.90;;;;;;5046805;28;20024;-78
2023/04/03 02:35:15;;;;;;;7.32;3.15;;;3.80;99.90;;;;;;5042169;28;20128;-78
2023/04/03 02:37:40;;;;;;;5.82;3.17;;;3.80;99.90;;;;;;5042939;28;20095;-78
2023/04/03 02:40:07;;;;;;;5.63;3.17;;;3.80;99.90;;;;;;5044171;28;20025;-79
2023/04/03 02:42:33;;;;;;;5.15;3.28;;;3.80;99.90;;;;;;5045361;28;20032;-78
2023/04/03 02:45:00;;;;;;;5.22;3.15;;;3.80;99.90;;;;;;5044617;28;20021;-78
2023/04/03 02:47:26;;;;;;;5.40;3.03;;;3.80;99.90;;;;;;5041741;28;20031;-78
2023/04/03 02:49:52;;;;;;;6.05;2.95;;;3.80;99.90;;;;;;5042962;28;20025;-79
2023/04/03 02:52:18;;;;;;;6.60;3.33;;;3.80;99.90;;;;;;5048146;28;20027;-78
2023/04/03 02:54:44;;;;;;;4.82;3.38;;;3.70;99.90;;;;;;5045005;28;20075;-78
2023/04/03 02:57:09;;;;;;;6.40;3.60;;;3.60;99.90;;;;;;5045382;28;20104;-78
2023/04/03 02:59:36;;;;;;;5.57;3.22;;;3.60;99.90;;;;;;5044980;28;20029;-78
2023/04/03 03:02:02;;;;;;;5.40;3.58;;;3.50;99.90;;;;;;5045078;28;20025;-77
2023/04/03 03:04:27;;;;;;;7.13;3.40;;;3.50;99.90;;;;;;5043254;28;20047;-77
2023/04/03 03:06:53;;;;;;;6.18;3.55;;;3.50;99.90;;;;;;5045267;28;20483;-78
2023/04/03 03:09:19;;;;;;;4.45;3.28;;;3.50;99.90;;;;;;5042776;28;20031;-78
2023/04/03 03:11:44;;;;;;;5.07;3.53;;;3.40;99.90;;;;;;5046505;28;20025;-78
2023/04/03 03:14:10;;;;;;;6.13;3.28;;;3.40;99.90;;;;;;5043495;28;20025;-78
2023/04/03 03:16:36;;;;;;;4.10;2.97;;;3.40;99.90;;;;;;5044201;28;20043;-78
2023/04/03 03:19:02;;;;;;;4.63;2.95;;;3.30;99.90;;;;;;5044224;28;20032;-78
2023/04/03 03:21:27;;;;;;;6.78;3.22;;;3.40;99.90;;;;;;5042620;28;20132;-77
2023/04/03 03:23:53;;;;;;;4.10;2.75;;;3.40;99.90;;;;;;5044748;28;20036;-78
2023/04/03 03:26:19;;;;;;;5.70;3.15;;;3.30;99.90;;;;;;5045375;28;20090;-78
2023/04/03 03:28:44;;;;;;;5.18;3.25;;;3.30;99.90;;;;;;5047686;28;20055;-77
2023/04/03 03:31:12;;;;;;;7.10;3.33;;;3.30;99.90;;;;;;5046988;28;20025;-78
2023/04/03 03:33:38;;;;;;;4.57;3.20;;;3.30;99.90;;;;;;5038580;28;20021;-78
2023/04/03 03:36:03;;;;;;;5.00;3.20;;;3.20;99.90;;;;;;5046209;28;20389;-77
2023/04/03 03:38:29;;;;;;;5.65;3.60;;;3.30;99.90;;;;;;5042255;28;20025;-77
2023/04/03 03:40:55;;;;;;;5.25;3.30;;;3.20;99.90;;;;;;5044997;28;20145;-78
2023/04/03 03:43:20;;;;;;;5.72;3.25;;;3.30;99.90;;;;;;5041042;28;20105;-78
2023/04/03 03:45:53;;;;;;;5.70;3.10;;;3.30;99.90;;;;;;5049307;28;20605;-78
2023/04/03 03:48:20;;;;;;;5.45;3.20;;;3.30;99.90;;;;;;5041154;28;20036;-78
2023/04/03 03:50:46;;;;;;;5.25;3.63;;;3.30;99.90;;;;;;5047723;28;20024;-79
2023/04/03 03:53:11;;;;;;;5.22;3.13;;;3.30;99.90;;;;;;5043422;28;20029;-78
2023/04/03 03:55:37;;;;;;;4.97;2.92;;;3.30;99.90;;;;;;5039787;28;20079;-77
2023/04/03 03:58:03;;;;;;;5.80;3.35;;;3.30;99.90;;;;;;5042559;28;20052;-78
2023/04/03 04:00:29;;;;;;;5.10;3.58;;;3.30;99.90;;;;;;5046626;23;21214;-76
2023/04/03 04:02:55;;;;;;;7.57;3.78;;;3.30;99.90;;;;;;5014699;28;20029;-76
2023/04/03 04:05:21;;;;;;;4.22;3.10;;;3.30;99.90;;;;;;5001936;28;20509;-77
2023/04/03 04:07:47;;;;;;;8.30;3.10;;;3.30;99.90;;;;;;5003208;28;20026;-76
2023/04/03 04:10:13;;;;;;;8.35;3.55;;;3.30;99.90;;;;;;5007107;28;20116;-76
2023/04/03 04:12:39;;;;;;;4.70;3.22;;;3.30;99.90;;;;;;5022712;28;20066;-76
2023/04/03 04:15:05;;;;;;;13.35;4.20;;;3.30;99.90;;;;;;5022962;28;20029;-77
2023/04/03 04:17:31;;;;;;;9.10;3.42;;;3.40;99.90;;;;;;5024356;28;20033;-76
2023/04/03 04:19:57;;;;;;;4.90;2.67;;;3.30;99.90;;;;;;5027861;28;20072;-76
2023/04/03 04:22:22;;;;;;;5.30;3.08;;;3.40;99.90;;;;;;5020122;28;20108;-77
2023/04/03 04:24:48;;;;;;;4.78;2.97;;;3.50;99.90;;;;;;5040702;28;20034;-77
2023/04/03 04:27:15;;;;;;;5.20;2.75;;;3.50;99.90;;;;;;5039243;28;20104;-77
2023/04/03 04:29:41;;;;;;;4.90;3.22;;;3.50;99.90;;;;;;5023469;28;20108;-77
2023/04/03 04:32:06;;;;;;;4.45;3.20;;;3.50;99.90;;;;;;5023101;28;20402;-76
2023/04/03 04:34:32;;;;;;;6.40;3.28;;;3.50;99.90;;;;;;5020843;28;20522;-76
2023/04/03 04:36:57;;;;;;;4.03;2.85;;;3.50;99.90;;;;;;5029979;28;20045;-77
2023/04/03 04:39:23;;;;;;;6.50;3.03;;;3.50;99.90;;;;;;5029114;28;20099;-77
2023/04/03 04:41:49;;;;;;;5.60;2.88;;;3.50;99.90;;;;;;5027161;28;20460;-77
2023/04/03 04:44:15;;;;;;;4.32;2.85;;;3.60;99.90;;;;;;5030162;28;20772;-80
2023/04/03 04:46:40;;;;;;;5.00;2.85;;;3.60;99.90;;;;;;5026478;28;20060;-80
2023/04/03 04:49:06;;;;;;;3.92;2.75;;;3.50;99.90;;;;;;5029657;28;20029;-80
2023/04/03 04:51:31;;;;;;;3.55;2.75;;;3.50;99.90;;;;;;5030759;28;20040;-80
2023/04/03 04:53:57;;;;;;;5.63;3.28;;;3.40;99.90;;;;;;5029360;28;20098;-80
2023/04/03 04:56:23;;;;;;;4.10;2.80;;;3.40;99.90;;;;;;5026985;28;20464;-77
2023/04/03 04:58:48;;;;;;;6.32;3.20;;;3.50;99.90;;;;;;5022942;28;20035;-77
2023/04/03 05:01:14;;;;;;;5.55;3.03;;;3.50;99.90;;;;;;5030896;28;20064;-76
2023/04/03 05:03:40;;;;;;;11.93;3.25;;;3.50;99.90;;;;;;5029691;28;20033;-79
2023/04/03 05:06:06;;;;;;;5.90;2.95;;;3.60;99.90;;;;;;5026829;28;20045;-77
2023/04/03 05:08:32;;;;;;;5.38;2.70;;;3.60;99.90;;;;;;5031176;28;20316;-78
2023/04/03 05:10:58;;;;;;;6.15;3.25;;;3.60;99.90;;;;;;5042266;28;20028;-77
2023/04/03 05:13:24;;;;;;;4.10;3.05;;;3.60;99.90;;;;;;5029009;28;20040;-78
2023/04/03 05:15:49;;;;;;;4.03;3.05;;;3.70;99.90;;;;;;5025015;28;20028;-78
2023/04/03 05:18:15;;;;;;;4.70;2.90;;;3.70;99.90;;;;;;5026484;28;20029;-78
2023/04/03 05:20:41;;;;;;;3.90;2.53;;;3.60;99.90;;;;;;5024657;28;20040;-78
2023/04/03 05:23:06;;;;;;;3.97;2.40;;;3.60;99.90;;;;;;5021805;28;20110;-77
2023/04/03 05:25:32;;;;;;;7.53;3.30;;;3.60;99.90;;;;;;5027544;28;20030;-78
2023/04/03 05:27:58;;;;;;;7.07;2.53;;;3.60;99.90;;;;;;5024645;28;20056;-79
2023/04/03 05:30:24;;;;;;;6.68;3.17;;;3.60;99.90;;;;;;5020291;28;20548;-77
2023/04/03 05:32:50;;;;;;;4.25;2.72;;;3.60;99.90;;;;;;5026499;28;20458;-79
2023/04/03 05:35:15;;;;;;;4.38;2.72;;;3.50;99.90;;;;;;5042349;28;20034;-78
2023/04/03 05:37:41;;;;;;;4.75;2.88;;;3.50;99.90;;;;;;5025817;28;20107;-78
2023/04/03 05:40:08;;;;;;;4.40;2.85;;;3.50;99.90;;;;;;5025297;28;20605;-78
2023/04/03 05:42:33;;;;;;;6.28;2.72;;;3.50;99.90;;;;;;5028719;28;20029;-77
2023/04/03 05:44:59;;;;;;;4.47;2.83;;;3.60;99.90;;;;;;5022374;28;20497;-77
2023/04/03 05:47:25;;;;;;;6.53;3.03;;;3.60;99.90;;;;;;5024947;28;20962;-79
2023/04/03 05:49:50;;;;;;;5.10;2.78;;;3.60;99.90;;;;;;5027793;28;20025;-77
2023/04/03 05:52:27;;;;;;;6.28;3.33;;;3.60;99.90;;;;;;5023935;28;20489;-77
2023/04/03 05:54:53;;;;;;;6.72;2.35;;;3.70;99.90;;;;;;5025332;28;20067;-77
2023/04/03 05:57:19;;;;;;;5.65;2.22;;;3.70;99.90;;;;;;5022101;28;20059;-76
2023/04/03 05:59:46;;;;;;;2.58;1.85;;;3.80;99.90;;;;;;5025285;28;20033;-77
2023/04/03 06:02:14;;;;;;;5.13;2.20;;;3.80;99.90;;;;;;5022809;28;20029;-76
2023/04/03 06:04:40;;;;;;;3.40;1.77;;;3.80;99.90;;;;;;5039666;28;20598;-77
2023/04/03 06:07:07;;;;;;;5.93;2.67;;;3.80;99.90;;;;;;5026876;28;20128;-76
2023/04/03 06:09:33;;;;;;;4.68;2.13;;;3.90;99.90;;;;;;5026545;28;20812;-76
2023/04/03 06:11:59;;;;;;;2.78;1.55;;;3.90;99.90;;;;;;5024584;28;20021;-76
2023/04/03 06:14:25;;;;;;;3.50;1.50;;;3.90;99.90;;;;;;5025540;28;20026;-76
2023/04/03 06:16:52;;;;;;;4.82;1.45;;;3.90;99.90;;;;;;5027424;28;20025;-76
2023/04/03 06:19:17;;;;;;;3.15;1.48;;;3.90;99.90;;;;;;5026335;28;20103;-76
2023/04/03 06:21:43;;;;;;;3.10;1.60;;;3.90;99.90;;;;;;5025972;28;20481;-76
2023/04/03 06:24:12;;;;;;;4.72;1.40;;;3.90;99.90;;;;;;5024291;28;20538;-76
2023/04/03 06:26:38;;;;;;;3.45;2.15;;;3.90;99.90;;;;;;5029731;28;20029;-76
2023/04/03 06:29:03;;;;;;;3.25;2.40;;;4.00;99.90;;;;;;5025169;28;20528;-76
2023/04/03 06:31:29;;;;;;;4.45;2.40;;;4.00;99.90;;;;;;5031135;28;20406;-76
2023/04/03 06:33:56;;;;;;;2.92;1.60;;;4.00;99.90;;;;;;5022161;28;20079;-77
2023/04/03 06:36:22;;;;;;;3.67;1.85;;;4.00;99.90;;;;;;5023973;28;20028;-76
2023/04/03 06:38:48;;;;;;;4.72;1.80;;;4.00;99.90;;;;;;5022235;28;20029;-76
2023/04/03 06:41:14;;;;;;;7.10;2.45;;;4.00;99.90;;;;;;5012386;28;20029;-76
2023/04/03 06:43:40;;;;;;;4.95;2.13;;;4.00;99.90;;;;;;5022256;28;20032;-77
2023/04/03 06:46:06;;;;;;;3.22;2.33;;;4.00;99.90;;;;;;5016929;28;20029;-76
2023/04/03 06:48:31;;;;;;;3.70;2.22;;;3.90;99.90;;;;;;5037128;28;20029;-76
2023/04/03 06:50:57;;;;;;;4.10;2.40;;;3.90;99.90;;;;;;5020843;28;20539;-76
2023/04/03 06:53:23;;;;;;;6.47;2.75;;;3.90;99.90;;;;;;5024295;28;20467;-76
2023/04/03 06:55:49;;;;;;;6.68;2.85;;;3.80;99.90;;;;;;5027305;28;20091;-76
2023/04/03 06:58:17;;;;;;;5.80;2.50;;;3.80;99.90;;;;;;5021351;28;20060;-76
2023/04/03 07:00:42;;;;;;;5.60;2.95;;;3.90;99.90;;;;;;5039424;28;20033;-76
2023/04/03 07:03:08;;;;;;;4.55;2.42;;;3.90;99.90;;;;;;5027638;28;20082;-76
2023/04/03 07:05:34;;;;;;;4.20;2.00;;;3.90;99.90;;;;;;5023882;28;20088;-77
2023/04/03 07:07:59;;;;;;;3.45;2.30;;;3.90;99.90;;;;;;5023839;28;20037;-76
2023/04/03 07:10:25;;;;;;;6.05;2.35;;;4.00;99.90;;;;;;5020874;28;20034;-76
2023/04/03 07:12:51;;;;;;;3.85;2.15;;;4.00;99.90;;;;;;5020111;28;20030;-76
2023/04/03 07:15:16;;;;;;;3.38;1.83;;;4.10;99.90;;;;;;5024234;28;20025;-76
2023/04/03 07:17:42;;;;;;;2.97;1.80;;;4.10;99.90;;;;;;5024953;28;20112;-76
2023/04/03 07:20:08;;;;;;;5.80;1.90;;;4.00;99.90;;;;;;5024482;28;20022;-77
2023/04/03 07:22:34;;;;;;;2.70;1.58;;;4.00;99.90;;;;;;5020905;28;20025;-77
2023/04/03 07:25:00;;;;;;;3.28;1.80;;;3.90;99.90;;;;;;5027040;28;20557;-76
2023/04/03 07:27:26;;;;;;;6.32;2.40;;;3.90;99.90;;;;;;5026002;28;20036;-77
2023/04/03 07:29:52;;;;;;;2.92;1.80;;;3.90;99.90;;;;;;5023217;28;20471;-76
2023/04/03 07:32:18;;;;;;;3.45;1.98;;;4.00;99.90;;;;;;5019230;28;20029;-77
2023/04/03 07:34:44;;;;;;;2.83;1.55;;;4.10;99.90;;;;;;5019419;28;20026;-76
2023/04/03 07:37:10;;;;;;;3.42;1.85;;;4.20;99.90;;;;;;5021141;28;20018;-77
2023/04/03 07:39:36;;;;;;;3.10;1.90;;;4.30;99.90;;;;;;5023056;28;20030;-76
2023/04/03 07:42:01;;;;;;;4.72;1.83;;;4.40;99.90;;;;;;5017065;28;20061;-76
2023/04/03 07:44:28;;;;;;;4.35;2.20;;;4.50;99.90;;;;;;5021615;28;20021;-77
2023/04/03 07:46:55;;;;;;;7.75;2.35;;;4.50;99.90;;;;;;5025132;28;20540;-76
2023/04/03 07:49:23;;;;;;;9.20;1.90;;;4.70;99.90;;;;;;5020454;28;20087;-77
2023/04/03 07:51:49;;;;;;;5.72;2.15;;;4.70;99.90;;;;;;5020162;28;20014;-77
2023/04/03 07:54:15;;;;;;;3.53;1.55;;;4.80;99.90;;;;;;5013281;28;20034;-76
2023/04/03 07:56:42;;;;;;;6.95;1.98;;;4.90;99.90;;;;;;5020499;28;20087;-76
2023/04/03 07:59:09;;;;;;;3.20;2.00;;;5.00;99.90;;;;;;5020105;28;20036;-77
2023/04/03 08:01:35;;;;;;;3.35;2.20;;;5.00;99.90;;;;;;5021169;28;20117;-76
2023/04/03 08:04:00;;;;;;;3.83;2.10;;;5.00;99.90;;;;;;5024033;28;21036;-77
2023/04/03 08:06:26;;;;;;;5.18;1.88;;;5.00;99.90;;;;;;5024713;28;20030;-77
2023/04/03 08:08:52;;;;;;;2.33;1.67;;;4.90;99.90;;;;;;5026244;28;20032;-76
2023/04/03 08:11:18;;;;;;;5.82;2.00;;;4.90;99.90;;;;;;5025573;28;20032;-76
2023/04/03 08:13:44;;;;;;;5.57;2.20;;;4.90;99.90;;;;;;5027961;28;20520;-76
2023/04/03 08:16:16;;;;;;;6.38;1.92;;;4.90;99.90;;;;;;5023218;28;20055;-76
2023/04/03 08:18:42;;;;;;;2.97;1.90;;;4.90;99.90;;;;;;5028655;28;20183;-76
2023/04/03 08:21:10;;;;;;;2.75;1.80;;;5.00;99.90;;;;;;5025628;28;20450;-76
2023/04/03 08:23:36;;;;;;;3.72;2.60;;;4.90;99.90;;;;;;5026661;28;20478;-76
2023/04/03 08:26:13;;;;;;;3.72;2.42;;;5.00;99.90;;;;;;5030602;28;20029;-76
2023/04/03 08:28:40;;;;;;;4.88;1.98;;;5.00;99.90;;;;;;5022304;28;20316;-76
2023/04/03 08:31:10;;;;;;;3.45;2.05;;;5.20;99.90;;;;;;5023338;28;20022;-76
2023/04/03 08:33:36;;;;;;;5.15;2.15;;;5.10;99.90;;;;;;5021547;28;20029;-76
2023/04/03 08:36:05;;;;;;;4.95;2.22;;;5.10;99.90;;;;;;5021305;28;20034;-77
2023/04/03 08:38:31;;;;;;;3.85;2.20;;;5.20;99.90;;;;;;5028442;28;20033;-76
2023/04/03 08:41:11;;;;;;;3.83;2.03;;;5.10;99.90;;;;;;5017688;28;20029;-76
2023/04/03 08:43:47;;;;;;;5.10;2.28;;;5.10;99.90;;;;;;5026733;28;20718;-75
2023/04/03 08:46:15;;;;;;;5.00;1.95;;;5.20;99.90;;;;;;5020393;28;20022;-76
2023/04/03 08:48:44;;;;;;;3.05;2.03;;;5.20;99.90;;;;;;5030630;28;20520;-77
2023/04/03 08:51:20;;;;;;;2.97;2.15;;;5.20;99.90;;;;;;5029498;28;20022;-76
2023/04/03 08:54:15;;;;;;;6.60;1.52;;;5.20;99.90;;;;;;5031472;28;20510;-75
2023/04/03 08:56:41;;;;;;;3.25;2.00;;;5.20;99.90;;;;;;5027069;28;20053;-77
2023/04/03 08:59:17;;;;;;;4.30;1.92;;;5.20;99.90;;;;;;5026876;28;20055;-77
2023/04/03 09:01:44;;;;;;;3.42;1.80;;;5.10;99.90;;;;;;5029783;28;20087;-76
2023/04/03 09:04:15;;;;;;;2.42;1.85;;;5.10;99.90;;;;;;5026174;28;20577;-76
2023/04/03 09:06:49;;;;;;;2.80;1.70;;;5.10;99.90;;;;;;5028016;28;20038;-77
2023/04/03 09:09:22;;;;;;;;;;;5.20;99.90;;;;;;5026903;28;20109;-76
2023/04/03 09:12:08;;;;;;;5.20;2.03;;;5.20;99.90;;;;;;5028402;28;19915;-77
2023/04/03 09:15:08;;;;;;;2.85;1.55;;;5.20;99.90;;;;;;5026216;28;20104;-77
2023/04/03 09:18:12;;;;;;;3.20;1.90;;;5.10;99.90;;;;;;5021576;28;20034;-77
2023/04/03 09:21:12;;;;;;;6.78;2.05;;;5.20;99.90;;;;;;5019996;28;20040;-77
2023/04/03 09:23:53;;;;;;;4.30;1.80;;;5.30;99.90;;;;;;5027145;28;20032;-77
2023/04/03 09:26:29;;;;;;;5.72;1.98;;;5.20;99.90;;;;;;5029503;28;20076;-78
2023/04/03 09:28:59;;;;;;;3.30;1.65;;;5.20;99.90;;;;;;5030990;28;20025;-78
2023/04/03 09:31:29;;;;;;;3.80;1.83;;;5.30;99.90;;;;;;5028701;28;20017;-78
2023/04/03 09:33:59;;;;;;;4.50;1.67;;;5.30;99.90;;;;;;5032115;28;20486;-78
2023/04/03 09:36:38;;;;;;;3.80;2.05;;;5.40;99.90;;;;;;5027636;28;20112;-77
2023/04/03 09:39:05;;;;;;;3.05;1.80;;;5.40;99.90;;;;;;5016545;28;20032;-77
2023/04/03 09:41:32;;;;;;;3.63;1.90;;;5.50;99.90;;;;;;4982416;28;20514;-77
2023/04/03 09:43:58;;;;;;;7.00;2.15;;;5.40;99.90;;;;;;5016599;28;20025;-76
2023/04/03 09:46:34;;;;;;;9.35;2.55;;;5.50;99.90;;;;;;5029653;28;20045;-78
2023/04/03 09:49:05;;;;;;;4.30;2.13;;;5.50;99.90;;;;;;5031071;28;20025;-78
2023/04/03 09:51:32;;;;;;;5.25;2.25;;;5.50;99.90;;;;;;5023561;28;20021;-77
2023/04/03 09:53:58;;;;;;;3.22;1.88;;;5.50;99.90;;;;;;5025768;28;20025;-77
2023/04/03 09:56:30;;;;;;;8.27;2.10;;;5.40;99.90;;;;;;5022257;28;20470;-76
2023/04/03 09:58:58;;;;;;;5.55;2.30;;;5.30;99.90;;;;;;5027834;28;20083;-77
2023/04/03 10:01:33;;;;;;;8.20;2.55;;;5.40;99.90;;;;;;5132493;23;20200;-76
2023/04/03 10:04:12;;;;;;;5.57;1.85;;;5.50;99.90;;;;;;5017480;28;20051;-77
2023/04/03 10:06:43;;;;;;;4.28;2.10;;;5.60;99.90;;;;;;5008582;28;20026;-78
2023/04/03 10:09:22;;;;;;;3.83;2.00;;;5.60;99.90;;;;;;5005024;28;20409;-76
2023/04/03 10:12:14;;;;;;;4.72;2.30;;;5.60;99.90;;;;;;5013085;28;20522;-77
2023/04/03 10:15:00;;;;;;;3.63;2.00;;;5.60;99.90;;;;;;5019825;28;20029;-77
2023/04/03 10:17:47;;;;;;;3.65;1.77;;;5.70;99.90;;;;;;5027500;28;20021;-78
2023/04/03 10:20:26;;;;;;;3.92;2.00;;;5.60;99.90;;;;;;5043273;28;20030;-78
2023/04/03 10:22:55;;;;;;;2.97;1.88;;;5.60;99.90;;;;;;5022779;28;20493;-77
2023/04/03 10:25:46;;;;;;;3.72;2.15;;;5.60;99.90;;;;;;5024233;28;20113;-78
2023/04/03 10:28:32;;;;;;;5.15;2.20;;;5.60;99.90;;;;;;5026175;28;20454;-78
2023/04/03 10:31:11;;;;;;;3.58;2.20;;;5.70;99.90;;;;;;5022762;28;20141;-78
2023/04/03 10:34:04;;;;;;;3.03;1.75;;;5.70;99.90;;;;;;5019229;28;20017;-76
2023/04/03 10:37:11;;;;;;;5.07;1.95;;;5.70;99.90;;;;;;5023745;28;20033;-76
2023/04/03 10:39:40;;;;;;;4.60;2.10;;;5.70;99.90;;;;;;5013475;28;20668;-78
2023/04/03 10:42:17;;;;;;;2.95;1.90;;;5.70;99.90;;;;;;5022435;28;20030;-78
2023/04/03 10:45:21;;;;;;;6.32;2.30;;;5.60;99.90;;;;;;5019200;28;20389;-75
2023/04/03 10:47:55;;;;;;;3.15;2.03;;;5.60;99.90;;;;;;5028471;28;20021;-76
2023/04/03 10:50:48;;;;;;;5.47;2.35;;;5.60;99.90;;;;;;5026782;28;20025;-76
2023/04/03 10:53:22;;;;;;;5.40;1.90;;;5.60;99.90;;;;;;5019033;28;20057;-76
2023/04/03 10:56:01;;;;;;;4.63;2.13;;;5.60;99.90;;;;;;5029385;28;20034;-77
2023/04/03 10:58:33;;;;;;;2.72;1.75;;;5.70;99.90;;;;;;5023036;28;20052;-77
2023/04/03 11:01:24;;;;;;;3.40;1.95;;;5.70;99.00;;;;;;5033980;28;20033;-77
2023/04/03 11:03:55;;;;;;;3.47;1.77;;;5.70;99.40;;;;;;5017228;28;20080;-77
2023/04/03 11:06:24;;;;;;;3.03;1.88;;;5.80;99.00;;;;;;5017693;28;20091;-78
2023/04/03 11:09:03;;;;;;;5.32;2.05;;;5.80;98.70;;;;;;5020266;28;20040;-77
2023/04/03 11:11:35;;;;;;;4.93;2.13;;;5.80;98.30;;;;;;5023602;28;20021;-78
2023/04/03 11:14:22;;;;;;;5.00;1.80;;;5.90;98.30;;;;;;5020623;28;20038;-77
2023/04/03 11:16:59;;;;;;;3.25;1.80;;;5.90;98.10;;;;;;5026378;28;20375;-76
2023/04/03 11:19:36;;;;;;;7.50;1.90;;;6.00;98.00;;;;;;5023721;28;20693;-76
2023/04/03 11:22:14;;;;;;;3.08;1.73;;;6.00;97.80;;;;;;5024217;28;20159;-77
2023/04/03 11:24:43;;;;;;;4.95;1.85;;;6.00;97.80;;;;;;5019892;28;20040;-77
2023/04/03 11:27:18;;;;;;;3.08;1.92;;;6.00;98.40;;;;;;5021773;28;20025;-76
2023/04/03 11:29:46;;;;;;;4.82;1.73;;;6.00;98.80;;;;;;5026004;28;20505;-76
2023/04/03 11:32:27;;;;;;;5.03;1.92;;;6.00;98.50;;;;;;5028071;28;20094;-76
2023/04/03 11:34:59;;;;;;;2.65;1.48;;;5.90;98.60;;;;;;5047792;28;20454;-77
2023/04/03 11:37:39;;;;;;;2.65;1.42;;;6.00;98.70;;;;;;5033338;28;20029;-76
2023/04/03 11:40:22;;;;;;;2.20;1.42;;;5.90;98.20;;;;;;5052945;28;20034;-76
2023/04/03 11:42:51;;;;;;;3.67;1.80;;;5.90;98.10;;;;;;5026992;28;20026;-76
2023/04/03 11:45:29;;;;;;;3.67;1.70;;;5.90;98.70;;;;;;5022135;28;20025;-76
2023/04/03 11:48:03;;;;;;;4.18;1.58;;;5.90;98.70;;;;;;5024716;28;20037;-77
2023/04/03 11:50:35;;;;;;;4.55;1.80;;;5.90;98.20;;;;;;5033175;28;20072;-75
2023/04/03 11:53:24;;;;;;;5.05;2.17;;;5.80;97.80;;;;;;5044628;28;20026;-76
2023/04/03 11:55:54;;;;;;;2.30;1.38;;;5.80;98.20;;;;;;5022464;28;20100;-76
2023/04/03 11:58:34;;;;;;;7.18;1.50;;;5.70;98.10;;;;;;5053497;28;20029;-75
2023/04/03 12:01:07;;;;;;;4.70;1.75;;;5.70;98.10;;;;;;5030260;28;20110;-76
2023/04/03 12:03:45;;;;;;;4.43;1.93;;;5.70;97.80;;;;;;5029873;28;20029;-75
2023/04/03 12:06:13;;;;;;;3.53;1.85;;;5.60;97.80;;;;;;5039536;28;20290;-76
2023/04/03 12:08:41;;;;;;;4.72;2.03;;;5.70;97.60;;;;;;5040573;28;20009;-76
2023/04/03 12:11:10;;;;;;;2.90;1.58;;;5.70;97.90;;;;;;5037534;28;20033;-76
2023/04/03 12:13:38;;;;;;;6.50;1.70;;;5.80;97.30;;;;;;5032533;28;20428;-74
2023/04/03 12:16:06;;;;;;;2.33;1.50;;;5.80;96.70;;;;;;5040127;28;20103;-76
2023/04/03 12:19:03;;;;;;;5.28;2.13;;;5.80;96.90;;;;;;5040309;28;20043;-76
2023/04/03 12:21:47;;;;;;;4.05;1.90;;;5.80;97.30;;;;;;5058503;28;20021;-76
2023/04/03 12:24:16;;;;;;;4.57;1.70;;;5.90;97.20;;;;;;5045064;28;20025;-76
2023/04/03 12:27:02;;;;;;;3.53;1.65;;;6.00;97.20;;;;;;5037701;28;20140;-76
2023/04/03 12:29:40;;;;;;;3.00;1.38;;;6.10;97.20;;;;;;5049241;28;20010;-78
2023/04/03 12:32:15;;;;;;;6.50;2.13;;;6.10;97.10;;;;;;5045425;28;20091;-77
2023/04/03 12:35:03;;;;;;;3.40;1.80;;;6.20;96.90;;;;;;5032914;28;20037;-76
2023/04/03 12:37:51;;;;;;;3.88;1.60;;;6.20;96.90;;;;;;5028606;28;20036;-76
2023/04/03 12:40:21;;;;;;;3.47;1.55;;;6.20;96.40;;;;;;5020683;28;20522;-76
2023/04/03 12:43:05;;;;;;;3.13;1.63;;;6.20;96.40;;;;;;5024829;28;20026;-76
2023/04/03 12:45:43;;;;;;;2.22;1.30;;;6.20;96.30;;;;;;5020885;28;20021;-76
2023/04/03 12:48:15;;;;;;;6.13;2.10;;;6.00;95.80;;;;;;5021512;28;20037;-76
2023/04/03 12:50:43;;;;;;;4.40;1.55;;;6.10;96.00;;;;;;5034498;28;20052;-76
2023/04/03 12:53:34;;;;;;;4.05;1.73;;;6.10;95.70;;;;;;5032159;28;20040;-76
2023/04/03 12:56:23;;;;;;;2.80;1.70;;;6.20;95.60;;;;;;5037520;28;20036;-76
2023/04/03 12:58:50;;;;;;;4.38;1.60;;;6.30;95.70;;;;;;5064754;28;20040;-77
2023/04/03 13:01:20;;;;;;;5.32;1.50;;;6.20;94.90;;;;;;5046749;28;20097;-76
2023/04/03 13:03:50;;;;;;;3.50;1.92;;;6.30;95.20;;;;;;5043567;28;20053;-77
2023/04/03 13:06:40;;;;;;;3.33;1.40;;;6.20;95.00;;;;;;5048867;28;20026;-76
2023/04/03 13:09:18;;;;;;;4.47;1.65;;;6.20;94.70;;;;;;5033891;28;20018;-76
2023/04/03 13:11:45;;;;;;;4.70;1.70;;;6.20;94.70;;;;;;5039814;28;20021;-76